createdAt,value
2023-04-02T00:00:10.125Z,79.9
2023-04-02T00:01:27.074Z,80.4
2023-04-02T00:02:44.188Z,80.9
2023-04-02T00:04:01.210Z,81.3
2023-04-02T00:05:18.110Z,81.8
2023-04-02T00:06:35.149Z,82
2023-04-02T00:07:52.103Z,81.6
2023-04-02T00:09:09.078Z,81.4
2023-04-02T00:10:26.083Z,81
2023-04-02T00:11:43.146Z,80.8
2023-04-02T00:13:00.106Z,80.3
2023-04-02T00:14:17.144Z,79.8
2023-04-02T00:15:34.367Z,79.1
2023-04-02T00:16:51.177Z,78.6
2023-04-02T00:18:08.130Z,78.5
2023-04-02T00:19:25.151Z,78.4
2023-04-02T00:20:42.130Z,78.4
2023-04-02T00:21:59.217Z,78
2023-04-02T00:23:16.201Z,77.9
2023-04-02T00:24:33.100Z,77.9
2023-04-02T00:25:50.141Z,77.9
2023-04-02T00:27:07.153Z,78
2023-04-02T00:28:24.129Z,78.2
2023-04-02T00:29:41.287Z,78.4
2023-04-02T00:30:58.643Z,78.6
2023-04-02T00:32:15.207Z,78.6
2023-04-02T00:33:32.132Z,78.3
2023-04-02T00:34:49.193Z,78.2
2023-04-02T00:36:06.219Z,78
2023-04-02T00:37:23.145Z,77.9
2023-04-02T00:38:40.119Z,77.8
2023-04-02T00:39:57.228Z,77.7
2023-04-02T00:41:14.157Z,77.7
2023-04-02T00:42:31.150Z,77.8
2023-04-02T00:43:48.164Z,77.9
2023-04-02T00:45:05.252Z,77.7
2023-04-02T00:46:22.242Z,77.8
2023-04-02T00:47:39.151Z,77.9
2023-04-02T00:48:56.164Z,77.9
2023-04-02T00:50:13.138Z,77.7
2023-04-02T00:51:30.212Z,77.7
2023-04-02T00:52:47.194Z,77.3
2023-04-02T00:54:04.143Z,77.1
2023-04-02T00:55:21.170Z,76.5
2023-04-02T00:56:38.237Z,76.5
2023-04-02T00:57:55.159Z,76.8
2023-04-02T00:59:12.147Z,76.9
2023-04-02T01:00:29.158Z,76.5
2023-04-02T01:01:46.293Z,76.9
2023-04-02T01:03:03.238Z,77.2
2023-04-02T01:04:20.167Z,77.1
2023-04-02T01:05:37.450Z,77.1
2023-04-02T01:06:54.195Z,76.7
2023-04-02T01:08:11.188Z,76.5
2023-04-02T01:09:28.402Z,76.1
2023-04-02T01:10:45.192Z,76.4
2023-04-02T01:12:02.227Z,77
2023-04-02T01:13:20.332Z,77.5
2023-04-02T01:14:37.230Z,78
2023-04-02T01:15:54.206Z,78.7
2023-04-02T01:17:11.171Z,79.6
2023-04-02T01:18:28.204Z,79.5
2023-04-02T01:19:45.252Z,79.5
2023-04-02T01:21:02.173Z,79.1
2023-04-02T01:22:19.183Z,78.7
2023-04-02T01:23:36.255Z,78.3
2023-04-02T01:24:53.219Z,78
2023-04-02T01:26:10.227Z,77.7
2023-04-02T01:27:27.196Z,77.5
2023-04-02T01:28:44.197Z,77.7
2023-04-02T01:30:01.259Z,77.2
2023-04-02T01:31:18.278Z,76.7
2023-04-02T01:32:35.267Z,76.4
2023-04-02T01:33:52.218Z,76.2
2023-04-02T01:35:09.209Z,76.1
2023-04-02T01:36:26.215Z,76.3
2023-04-02T01:37:43.338Z,76.2
2023-04-02T01:39:00.234Z,76.3
2023-04-02T01:40:17.249Z,76.2
2023-04-02T01:41:34.196Z,76.4
2023-04-02T01:42:51.222Z,76.4
2023-04-02T01:44:08.274Z,76.3
2023-04-02T01:45:25.220Z,75.9
2023-04-02T01:46:42.303Z,75.9
2023-04-02T01:47:59.255Z,75.9
2023-04-02T01:49:16.294Z,75.8
2023-04-02T01:50:33.307Z,75.4
2023-04-02T01:51:50.220Z,75.4
2023-04-02T01:53:07.304Z,75.2
2023-04-02T01:54:24.269Z,75.2
2023-04-02T01:55:41.223Z,75.2
2023-04-02T01:56:58.427Z,75.5
2023-04-02T01:58:15.263Z,75.7
2023-04-02T01:59:32.230Z,75.8
2023-04-02T02:00:49.289Z,75.7
2023-04-02T02:02:06.294Z,75.5
2023-04-02T02:03:23.296Z,75.4
2023-04-02T02:04:40.274Z,75.3
2023-04-02T02:05:57.258Z,75.3
2023-04-02T02:07:14.502Z,75.2
2023-04-02T02:08:31.304Z,74.9
2023-04-02T02:09:48.272Z,74.9
2023-04-02T02:11:05.243Z,74.8
2023-04-02T02:12:22.250Z,74.3
2023-04-02T02:13:40.991Z,75.1
2023-04-02T02:14:56.312Z,75.9
2023-04-02T02:16:13.296Z,76.2
2023-04-02T02:17:30.276Z,77.2
2023-04-02T02:18:47.259Z,78.3
2023-04-02T02:20:04.320Z,79.3
2023-04-02T02:21:21.264Z,79.9
2023-04-02T02:22:38.282Z,80.1
2023-04-02T02:23:55.274Z,80
2023-04-02T02:25:12.372Z,80.4
2023-04-02T02:26:29.323Z,81.1
2023-04-02T02:27:46.339Z,81.2
2023-04-02T02:29:03.337Z,80.5
2023-04-02T02:30:20.289Z,79.8
2023-04-02T02:31:37.312Z,79.3
2023-04-02T02:32:54.294Z,78.7
2023-04-02T02:34:11.320Z,78
2023-04-02T02:35:28.298Z,77.7
2023-04-02T02:36:45.272Z,77.1
2023-04-02T02:38:02.320Z,76.4
2023-04-02T02:39:19.391Z,76.1
2023-04-02T02:40:36.325Z,75.9
2023-04-02T02:41:53.300Z,75.7
2023-04-02T02:43:10.298Z,75.8
2023-04-02T02:44:27.489Z,75.5
2023-04-02T02:45:44.339Z,75.7
2023-04-02T02:47:01.295Z,75.8
2023-04-02T02:48:18.333Z,76
2023-04-02T02:49:35.361Z,75.9
2023-04-02T02:50:52.343Z,76.1
2023-04-02T02:52:09.325Z,76.2
2023-04-02T02:53:26.367Z,76
2023-04-02T02:54:43.390Z,75.6
2023-04-02T02:56:00.514Z,75.6
2023-04-02T02:57:17.324Z,75.8
2023-04-02T02:58:34.327Z,76
2023-04-02T02:59:51.350Z,76.4
2023-04-02T03:01:08.382Z,76.6
2023-04-02T03:02:25.372Z,76.3
2023-04-02T03:03:42.533Z,76.2
2023-04-02T03:04:59.349Z,76.1
2023-04-02T03:06:16.376Z,75.8
2023-04-02T03:07:33.358Z,75.5
2023-04-02T03:08:50.337Z,75.2
2023-04-02T03:10:07.398Z,75.4
2023-04-02T03:11:24.360Z,75.3
2023-04-02T03:12:41.353Z,75.8
2023-04-02T03:13:58.417Z,76.1
2023-04-02T03:15:15.354Z,76
2023-04-02T03:16:32.342Z,75.9
2023-04-02T03:17:49.379Z,75.6
2023-04-02T03:19:06.375Z,75.5
2023-04-02T03:20:23.402Z,75.1
2023-04-02T03:21:40.354Z,75
2023-04-02T03:22:57.408Z,75.8
2023-04-02T03:24:14.341Z,77
2023-04-02T03:25:31.412Z,77.9
2023-04-02T03:26:48.429Z,78.1
2023-04-02T03:28:05.341Z,78.6
2023-04-02T03:29:22.350Z,79
2023-04-02T03:30:39.515Z,79.3
2023-04-02T03:31:56.364Z,79.7
2023-04-02T03:33:13.408Z,80.5
2023-04-02T03:34:30.338Z,81
2023-04-02T03:35:47.398Z,81
2023-04-02T03:37:04.360Z,80.6
2023-04-02T03:38:21.374Z,80
2023-04-02T03:39:38.396Z,79.5
2023-04-02T03:40:55.443Z,79.1
2023-04-02T03:42:12.439Z,79.5
2023-04-02T03:43:29.386Z,80.2
2023-04-02T03:44:46.426Z,80.4
2023-04-02T03:46:03.502Z,80.3
2023-04-02T03:47:20.387Z,79.9
2023-04-02T03:48:37.378Z,79.4
2023-04-02T03:49:54.388Z,79.3
2023-04-02T03:51:11.462Z,78.8
2023-04-02T03:52:28.604Z,79
2023-04-02T03:53:45.395Z,79.4
2023-04-02T03:55:02.406Z,79.1
2023-04-02T03:56:19.430Z,79.2
2023-04-02T03:57:36.429Z,79.2
2023-04-02T03:58:53.417Z,78.9
2023-04-02T04:00:10.400Z,77.7
2023-04-02T04:01:27.479Z,77.7
2023-04-02T04:02:44.505Z,77.9
2023-04-02T04:04:01.749Z,78.3
2023-04-02T04:05:18.402Z,79.2
2023-04-02T04:06:35.410Z,79.6
2023-04-02T04:07:52.442Z,79.9
2023-04-02T04:09:09.494Z,80.6
2023-04-02T04:10:26.484Z,81.3
2023-04-02T04:11:43.416Z,81.3
2023-04-02T04:13:00.479Z,81
2023-04-02T04:14:17.448Z,81.6
2023-04-02T04:15:34.713Z,82
2023-04-02T04:16:51.556Z,82.4
2023-04-02T04:18:08.476Z,82.1
2023-04-02T04:19:25.457Z,81.4
2023-04-02T04:20:42.625Z,81
2023-04-02T04:21:59.491Z,81.1
2023-04-02T04:23:16.432Z,80.9
2023-04-02T04:24:33.435Z,81.1
2023-04-02T04:25:50.472Z,81.4
2023-04-02T04:27:07.510Z,81.9
2023-04-02T04:28:24.524Z,81.8
2023-04-02T04:29:41.423Z,81.1
2023-04-02T04:30:58.441Z,80.8
2023-04-02T04:32:15.615Z,80.2
2023-04-02T04:33:32.443Z,80.2
2023-04-02T04:34:49.427Z,80.5
2023-04-02T04:36:06.478Z,81.1
2023-04-02T04:37:23.490Z,82
2023-04-02T04:38:40.438Z,82.2
2023-04-02T04:39:57.485Z,82.5
2023-04-02T04:41:14.440Z,82.6
2023-04-02T04:42:31.474Z,82.6
2023-04-02T04:43:48.498Z,82.6
2023-04-02T04:45:05.491Z,82.6
2023-04-02T04:46:22.523Z,82.2
2023-04-02T04:47:39.500Z,82.1
2023-04-02T04:48:56.485Z,82
2023-04-02T04:50:13.481Z,81.9
2023-04-02T04:51:30.463Z,82.1
2023-04-02T04:52:47.468Z,82.1
2023-04-02T04:54:04.495Z,81.7
2023-04-02T04:55:21.544Z,81.1
2023-04-02T04:56:38.539Z,81
2023-04-02T04:57:55.500Z,80.6
2023-04-02T04:59:12.516Z,80.7
2023-04-02T05:00:29.475Z,80.2
2023-04-02T05:01:46.538Z,79.9
2023-04-02T05:03:04.239Z,79.3
2023-04-02T05:04:22.357Z,78.6
2023-04-02T05:05:39.426Z,79.1
2023-04-02T05:06:56.490Z,79.5
2023-04-02T05:08:13.535Z,80
2023-04-02T05:09:30.487Z,80.7
2023-04-02T05:10:47.506Z,80.9
2023-04-02T05:12:04.479Z,80.9
2023-04-02T05:13:21.623Z,80.7
2023-04-02T05:14:38.513Z,80.6
2023-04-02T05:15:55.506Z,80.1
2023-04-02T05:17:12.993Z,79.8
2023-04-02T05:18:29.515Z,79.1
2023-04-02T05:19:46.518Z,78
2023-04-02T05:21:03.491Z,77.5
2023-04-02T05:22:20.553Z,77.7
2023-04-02T05:23:37.562Z,78.2
2023-04-02T05:24:54.492Z,78.6
2023-04-02T05:26:11.511Z,78.6
2023-04-02T05:27:28.572Z,78.7
2023-04-02T05:28:45.550Z,78.6
2023-04-02T05:30:02.621Z,78.3
2023-04-02T05:31:19.551Z,77.7
2023-04-02T05:32:36.610Z,77
2023-04-02T05:33:53.528Z,77.2
2023-04-02T05:35:10.552Z,77.7
2023-04-02T05:36:27.618Z,78.4
2023-04-02T05:37:44.516Z,79.4
2023-04-02T05:39:01.559Z,79.6
2023-04-02T05:40:18.569Z,79.3
2023-04-02T05:41:35.527Z,79.1
2023-04-02T05:42:52.572Z,79.3
2023-04-02T05:44:09.570Z,79.1
2023-04-02T05:45:26.629Z,78.5
2023-04-02T05:46:43.664Z,78.2
2023-04-02T05:48:00.590Z,77.6
2023-04-02T05:49:17.577Z,77.1
2023-04-02T05:50:34.553Z,77.3
2023-04-02T05:51:51.540Z,78.6
2023-04-02T05:53:08.539Z,79.8
2023-04-02T05:54:25.608Z,80.4
2023-04-02T05:55:42.528Z,80.7
2023-04-02T05:56:59.576Z,81
2023-04-02T05:58:34.331Z,80.6
2023-04-02T05:59:33.603Z,80.3
2023-04-02T06:00:50.579Z,79.8
2023-04-02T06:02:08.171Z,79.4
2023-04-02T06:03:25.587Z,78.7
2023-04-02T06:04:43.304Z,78.5
2023-04-02T06:06:00.559Z,78
2023-04-02T06:07:17.658Z,77.2
2023-04-02T06:08:34.944Z,76.6
2023-04-02T06:09:51.637Z,76.4
2023-04-02T06:11:08.555Z,76.1
2023-04-02T06:12:25.592Z,76.4
2023-04-02T06:13:42.604Z,77
2023-04-02T06:14:59.574Z,77.5
2023-04-02T06:16:16.729Z,78
2023-04-02T06:17:33.605Z,78.3
2023-04-02T06:18:50.606Z,78.3
2023-04-02T06:20:07.625Z,78
2023-04-02T06:21:24.644Z,77.3
2023-04-02T06:22:42.548Z,76.6
2023-04-02T06:23:59.565Z,76.2
2023-04-02T06:25:16.627Z,76.3
2023-04-02T06:26:33.600Z,76.1
2023-04-02T06:27:50.586Z,75.7
2023-04-02T06:29:07.650Z,74.9
2023-04-02T06:30:24.600Z,74.4
2023-04-02T06:31:41.676Z,74.8
2023-04-02T06:32:58.712Z,74.8
2023-04-02T06:34:15.593Z,74.9
2023-04-02T06:35:32.627Z,74.3
2023-04-02T06:36:49.646Z,75.5
2023-04-02T06:38:06.623Z,76
2023-04-02T06:39:23.610Z,76.8
2023-04-02T06:40:40.605Z,77.3
2023-04-02T06:41:57.709Z,78
2023-04-02T06:43:14.642Z,78.8
2023-04-02T06:44:31.624Z,79.5
2023-04-02T06:45:48.662Z,79.9
2023-04-02T06:47:05.652Z,79.7
2023-04-02T06:48:22.696Z,79.7
2023-04-02T06:49:39.642Z,79.7
2023-04-02T06:50:56.637Z,80.1
2023-04-02T06:52:13.680Z,80.5
2023-04-02T06:53:30.627Z,80.8
2023-04-02T06:54:47.751Z,80.5
2023-04-02T06:56:04.629Z,79.8
2023-04-02T06:57:21.768Z,79.5
2023-04-02T06:58:38.641Z,78.8
2023-04-02T06:59:55.645Z,79.2
2023-04-02T07:01:12.742Z,79.6
2023-04-02T07:02:29.775Z,79.4
2023-04-02T07:03:46.660Z,79
2023-04-02T07:05:03.797Z,79.2
2023-04-02T07:06:20.669Z,78.6
2023-04-02T07:07:37.698Z,77.8
2023-04-02T07:08:55.684Z,77.6
2023-04-02T07:10:12.666Z,77.7
2023-04-02T07:11:29.648Z,77.8
2023-04-02T07:12:46.665Z,77.3
2023-04-02T07:14:03.739Z,76.8
2023-04-02T07:15:20.736Z,77.4
2023-04-02T07:16:37.707Z,78
2023-04-02T07:17:54.788Z,78.1
2023-04-02T07:19:11.736Z,77.9
2023-04-02T07:20:28.697Z,77.9
2023-04-02T07:21:45.798Z,77.8
2023-04-02T07:23:02.867Z,76.9
2023-04-02T07:24:19.662Z,76.7
2023-04-02T07:25:37.096Z,76.2
2023-04-02T07:26:53.723Z,75.6
2023-04-02T07:28:10.709Z,75.6
2023-04-02T07:29:27.713Z,76.4
2023-04-02T07:30:44.668Z,76.6
2023-04-02T07:32:01.739Z,76.3
2023-04-02T07:33:18.719Z,76
2023-04-02T07:34:35.715Z,75.7
2023-04-02T07:35:52.703Z,75.5
2023-04-02T07:37:09.750Z,75.5
2023-04-02T07:38:26.699Z,75.1
2023-04-02T07:39:43.711Z,75
2023-04-02T07:41:00.692Z,74.9
2023-04-02T07:42:17.734Z,75.6
2023-04-02T07:43:34.693Z,75.9
2023-04-02T07:44:51.701Z,75.5
2023-04-02T07:46:08.892Z,75.4
2023-04-02T07:47:25.808Z,74.6
2023-04-02T07:48:42.764Z,75
2023-04-02T07:49:59.782Z,75.9
2023-04-02T07:51:16.745Z,76.5
2023-04-02T07:52:33.749Z,76.8
2023-04-02T07:53:50.710Z,76.8
2023-04-02T07:55:07.778Z,77.1
2023-04-02T07:56:24.726Z,77.6
2023-04-02T07:57:42.704Z,78.3
2023-04-02T07:58:58.972Z,79.2
2023-04-02T08:00:16.909Z,79.9
2023-04-02T08:01:33.755Z,80.4
2023-04-02T08:02:50.841Z,80.8
2023-04-02T08:04:07.815Z,80.3
2023-04-02T08:05:24.780Z,79.8
2023-04-02T08:06:41.850Z,79.5
2023-04-02T08:07:58.798Z,79.6
2023-04-02T08:09:15.733Z,79.2
2023-04-02T08:10:32.798Z,79
2023-04-02T08:11:50.696Z,78.5
2023-04-02T08:13:07.846Z,78
2023-04-02T08:14:24.815Z,76.8
2023-04-02T08:15:41.824Z,76.4
2023-04-02T08:16:58.974Z,76.4
2023-04-02T08:18:15.904Z,77.1
2023-04-02T08:19:36.882Z,77.3
2023-04-02T08:20:49.785Z,77.3
2023-04-02T08:22:06.794Z,77.5
2023-04-02T08:23:23.791Z,77.5
2023-04-02T08:24:40.814Z,77.4
2023-04-02T08:25:57.784Z,76.5
2023-04-02T08:27:14.782Z,76.9
2023-04-02T08:28:31.945Z,76.5
2023-04-02T08:29:49.128Z,76.6
2023-04-02T08:31:05.849Z,76.3
2023-04-02T08:32:22.791Z,75.6
2023-04-02T08:33:39.859Z,75.1
2023-04-02T08:34:56.920Z,74.5
2023-04-02T08:36:13.822Z,74.3
2023-04-02T08:37:30.819Z,74.4
2023-04-02T08:38:47.805Z,73.8
2023-04-02T08:40:04.842Z,73.2
2023-04-02T08:41:21.793Z,73.1
2023-04-02T08:42:38.806Z,73
2023-04-02T08:43:55.853Z,73.4
2023-04-02T08:45:24.064Z,73.4
2023-04-02T08:46:29.802Z,73.1
2023-04-02T08:47:46.849Z,73.3
2023-04-02T08:49:04.335Z,73.6
2023-04-02T08:50:20.837Z,73.1
2023-04-02T08:51:37.832Z,71.9
2023-04-02T08:52:54.835Z,71.1
2023-04-02T08:54:11.867Z,70.1
2023-04-02T08:55:28.855Z,70.2
2023-04-02T08:56:45.862Z,70.2
2023-04-02T08:58:02.910Z,69.4
2023-04-02T08:59:19.845Z,68.9
2023-04-02T09:00:37.908Z,68.6
2023-04-02T09:01:53.904Z,69.2
2023-04-02T09:03:10.882Z,70.1
2023-04-02T09:04:27.818Z,69.9
2023-04-02T09:05:44.882Z,69.5
2023-04-02T09:07:01.871Z,68.7
2023-04-02T09:08:18.877Z,68.8
2023-04-02T09:09:35.925Z,69.6
2023-04-02T09:10:52.816Z,69.2
2023-04-02T09:12:09.832Z,69.2
2023-04-02T09:13:26.917Z,69.6
2023-04-02T09:14:43.859Z,70
2023-04-02T09:16:00.922Z,70.2
2023-04-02T09:17:17.816Z,70.5
2023-04-02T09:18:34.858Z,70.5
2023-04-02T09:19:51.959Z,70.5
2023-04-02T09:21:08.915Z,70.9
2023-04-02T09:22:25.845Z,71.2
2023-04-02T09:23:42.851Z,71.6
2023-04-02T09:24:59.859Z,72
2023-04-02T09:26:16.896Z,71.8
2023-04-02T09:27:33.828Z,72.4
2023-04-02T09:28:50.849Z,72.8
2023-04-02T09:30:07.901Z,72.2
2023-04-02T09:31:24.961Z,71.5
2023-04-02T09:32:41.916Z,71.5
2023-04-02T09:33:58.981Z,71.8
2023-04-02T09:35:25.215Z,72.1
2023-04-02T09:36:32.960Z,72.2
2023-04-02T09:37:49.995Z,72
2023-04-02T09:39:06.921Z,72.5
2023-04-02T09:40:23.872Z,72.5
2023-04-02T09:41:40.894Z,73.3
2023-04-02T09:42:57.878Z,73.7
2023-04-02T09:44:15.021Z,73.7
2023-04-02T09:45:32.506Z,73.5
2023-04-02T09:46:48.939Z,72.8
2023-04-02T09:48:05.976Z,72.5
2023-04-02T09:49:38.233Z,72.6
2023-04-02T09:50:57.287Z,72.3
2023-04-02T09:52:19.167Z,71.6
2023-04-02T09:53:42.518Z,71.2
2023-04-02T09:54:59.790Z,71.1
2023-04-02T09:56:17.205Z,70.5
2023-04-02T09:57:33.988Z,69.3
2023-04-02T09:58:50.996Z,68.9
2023-04-02T10:00:10.388Z,68.3
2023-04-02T10:01:24.961Z,68.6
2023-04-02T10:02:41.946Z,68.4
2023-04-02T10:03:58.957Z,68.2
2023-04-02T10:05:20.932Z,68
2023-04-02T10:06:32.911Z,68.2
2023-04-02T10:07:50.007Z,67.6
2023-04-02T10:09:06.917Z,67.3
2023-04-02T10:10:25.217Z,67.1
2023-04-02T10:11:46.505Z,67.6
2023-04-02T10:12:58.010Z,68.2
2023-04-02T10:14:14.923Z,68.3
2023-04-02T10:15:31.889Z,68.4
2023-04-02T10:16:49.026Z,67.9
2023-04-02T10:18:05.974Z,67.5
2023-04-02T10:19:22.959Z,67.3
2023-04-02T10:20:48.822Z,67.8
2023-04-02T10:21:56.947Z,68
2023-04-02T10:23:14.018Z,68.2
2023-04-02T10:24:30.913Z,69.4
2023-04-02T10:25:48.541Z,70
2023-04-02T10:27:04.973Z,70.8
2023-04-02T10:28:21.934Z,71.7
2023-04-02T10:29:38.935Z,71.9
2023-04-02T10:30:56.009Z,72.5
2023-04-02T10:32:12.958Z,72.4
2023-04-02T10:33:29.960Z,72.6
2023-04-02T10:34:46.937Z,72.5
2023-04-02T10:36:04.372Z,71.4
2023-04-02T10:37:21.112Z,71.1
2023-04-02T10:38:38.029Z,71.1
2023-04-02T10:39:55.032Z,71
2023-04-02T10:41:12.044Z,70.9
2023-04-02T10:42:28.975Z,70.9
2023-04-02T10:43:45.959Z,70.9
2023-04-02T10:45:02.941Z,69.9
2023-04-02T10:46:20.122Z,69.5
2023-04-02T10:47:36.993Z,69.3
2023-04-02T10:48:53.974Z,68.4
2023-04-02T10:50:10.962Z,68
2023-04-02T10:51:28.058Z,67.4
2023-04-02T10:52:44.999Z,67.9
2023-04-02T10:54:02.174Z,67.6
2023-04-02T10:55:19.016Z,68
2023-04-02T10:56:44.391Z,68.5
2023-04-02T10:57:53.014Z,68.6
2023-04-02T10:59:09.998Z,69
2023-04-02T11:00:26.965Z,69.5
2023-04-02T11:01:44.028Z,70
2023-04-02T11:03:01.197Z,69.8
2023-04-02T11:04:18.034Z,70.2
2023-04-02T11:05:35.372Z,70.1
2023-04-02T11:06:56.032Z,70.2
2023-04-02T11:08:09.059Z,70.1
2023-04-02T11:09:26.017Z,70
2023-04-02T11:10:43.253Z,69.9
2023-04-02T11:12:00.018Z,69.5
2023-04-02T11:13:17.083Z,69.4
2023-04-02T11:14:34.013Z,69.1
2023-04-02T11:15:51.063Z,68.9
2023-04-02T11:17:07.983Z,68.4
2023-04-02T11:18:25.015Z,68.2
2023-04-02T11:19:42.025Z,68.1
2023-04-02T11:20:59.001Z,67.4
2023-04-02T11:22:15.989Z,66.4
2023-04-02T11:23:33.009Z,65.5
2023-04-02T11:24:50.058Z,64.9
2023-04-02T11:26:07.137Z,64.8
2023-04-02T11:27:24.009Z,64.9
2023-04-02T11:28:41.026Z,65.1
2023-04-02T11:29:58.001Z,64.9
2023-04-02T11:31:15.103Z,65.4
2023-04-02T11:32:32.096Z,65.8
2023-04-02T11:33:50.121Z,65.8
2023-04-02T11:35:07.380Z,65.3
2023-04-02T11:36:23.089Z,64.6
2023-04-02T11:37:40.081Z,63.9
2023-04-02T11:39:01.846Z,64
2023-04-02T11:40:14.176Z,63.3
2023-04-02T11:41:31.050Z,63
2023-04-02T11:42:48.022Z,63
2023-04-02T11:44:05.101Z,63.1
2023-04-02T11:45:22.109Z,62.5
2023-04-02T11:46:39.183Z,62
2023-04-02T11:47:58.537Z,61.7
2023-04-02T11:49:15.058Z,61.4
2023-04-02T11:50:32.026Z,61.5
2023-04-02T11:51:49.673Z,61.2
2023-04-02T11:53:06.065Z,60.8
2023-04-02T11:54:23.055Z,62.1
2023-04-02T11:55:40.142Z,62.5
2023-04-02T11:56:57.196Z,62.8
2023-04-02T11:58:14.131Z,62.8
2023-04-02T11:59:31.063Z,63.2
2023-04-02T12:00:48.069Z,63.1
2023-04-02T12:02:05.241Z,63.1
2023-04-02T12:03:22.129Z,63.9
2023-04-02T12:04:39.114Z,64.3
2023-04-02T12:05:56.086Z,65
2023-04-02T12:07:13.059Z,65.6
2023-04-02T12:08:30.146Z,66.2
2023-04-02T12:09:47.127Z,66.5
2023-04-02T12:11:04.135Z,67
2023-04-02T12:12:21.128Z,67.6
2023-04-02T12:13:38.125Z,68.4
2023-04-02T12:14:55.096Z,69.3
2023-04-02T12:16:12.080Z,70.2
2023-04-02T12:17:29.073Z,70.4
2023-04-02T12:18:46.075Z,70.5
2023-04-02T12:20:05.216Z,70.7
2023-04-02T12:21:20.104Z,70.6
2023-04-02T12:22:37.166Z,70
2023-04-02T12:23:54.096Z,69.1
2023-04-02T12:25:11.106Z,68.9
2023-04-02T12:26:28.109Z,69
2023-04-02T12:27:45.155Z,68.8
2023-04-02T12:29:02.115Z,68.7
2023-04-02T12:30:19.172Z,68.7
2023-04-02T12:31:36.151Z,68.8
2023-04-02T12:32:53.417Z,68.6
2023-04-02T12:34:10.131Z,68.4
2023-04-02T12:35:27.148Z,68.4
2023-04-02T12:36:44.117Z,68.4
2023-04-02T12:38:01.233Z,68.9
2023-04-02T12:39:18.225Z,69.1
2023-04-02T12:40:35.298Z,69.2
2023-04-02T12:41:52.197Z,69
2023-04-02T12:43:09.566Z,68.4
2023-04-02T12:44:26.151Z,67.1
2023-04-02T12:45:43.185Z,67.1
2023-04-02T12:47:00.160Z,67
2023-04-02T12:48:17.187Z,66.8
2023-04-02T12:49:34.193Z,67.2
2023-04-02T12:50:51.152Z,67.4
2023-04-02T12:52:08.177Z,67.5
2023-04-02T12:53:25.166Z,67.1
2023-04-02T12:54:42.115Z,67.4
2023-04-02T12:55:59.130Z,67.7
2023-04-02T12:57:16.256Z,68.1
2023-04-02T12:58:33.156Z,68.3
2023-04-02T12:59:50.182Z,68.2
2023-04-02T13:01:07.525Z,67.8
2023-04-02T13:02:24.240Z,66.9
2023-04-02T13:03:41.222Z,67
2023-04-02T13:04:58.245Z,67.5
2023-04-02T13:06:15.187Z,67.6
2023-04-02T13:07:32.280Z,67.3
2023-04-02T13:08:49.167Z,67.2
2023-04-02T13:10:06.170Z,67.1
2023-04-02T13:11:23.191Z,67.5
2023-04-02T13:12:40.348Z,67.6
2023-04-02T13:13:57.239Z,67.4
2023-04-02T13:15:14.158Z,67
2023-04-02T13:16:31.232Z,67.3
2023-04-02T13:17:48.169Z,67.6
2023-04-02T13:19:05.256Z,67.7
2023-04-02T13:20:22.217Z,68.2
2023-04-02T13:21:39.451Z,67.8
2023-04-02T13:22:56.176Z,67.7
2023-04-02T13:24:13.154Z,68.2
2023-04-02T13:25:30.203Z,68.5
2023-04-02T13:26:47.188Z,68.1
2023-04-02T13:28:04.359Z,68.3
2023-04-02T13:29:21.183Z,68
2023-04-02T13:30:38.448Z,67.8
2023-04-02T13:31:55.271Z,67.4
2023-04-02T13:33:12.224Z,66.8
2023-04-02T13:34:29.226Z,66.6
2023-04-02T13:35:46.316Z,67.3
2023-04-02T13:37:03.268Z,67.2
2023-04-02T13:38:20.362Z,67
2023-04-02T13:39:37.228Z,66.5
2023-04-02T13:40:54.186Z,66.9
2023-04-02T13:42:11.166Z,67
2023-04-02T13:43:28.238Z,67.1
2023-04-02T13:44:45.265Z,67.5
2023-04-02T13:46:02.210Z,67.9
2023-04-02T13:47:19.490Z,68.5
2023-04-02T13:48:36.185Z,68.6
2023-04-02T13:49:53.197Z,68.8
2023-04-02T13:51:10.237Z,68.3
2023-04-02T13:52:27.376Z,67.9
2023-04-02T13:53:44.194Z,68
2023-04-02T13:55:01.231Z,68.1
2023-04-02T13:56:18.268Z,67.6
2023-04-02T13:57:35.269Z,67.3
2023-04-02T13:58:52.296Z,67.3
2023-04-02T14:00:09.264Z,67.3
2023-04-02T14:01:26.327Z,67.4
2023-04-02T14:02:43.298Z,67.4
2023-04-02T14:04:00.275Z,67.1
2023-04-02T14:05:17.281Z,67.5
2023-04-02T14:06:34.275Z,67.7
2023-04-02T14:07:51.248Z,68.1
2023-04-02T14:09:08.284Z,68.4
2023-04-02T14:10:26.133Z,68.3
2023-04-02T14:11:43.969Z,67.9
2023-04-02T14:13:01.104Z,67.4
2023-04-02T14:14:19.142Z,66.7
2023-04-02T14:15:35.422Z,66.3
2023-04-02T14:16:52.226Z,66.1
2023-04-02T14:18:09.319Z,66.3
2023-04-02T14:19:30.679Z,66.2
2023-04-02T14:20:49.183Z,66.7
2023-04-02T14:22:05.218Z,67.1
2023-04-02T14:23:22.262Z,66.7
2023-04-02T14:24:39.352Z,66.5
2023-04-02T14:25:56.261Z,66.6
2023-04-02T14:27:13.217Z,66.6
2023-04-02T14:28:30.257Z,66.9
2023-04-02T14:29:47.291Z,66.9
2023-04-02T14:31:04.316Z,66.6
2023-04-02T14:32:21.314Z,66.4
2023-04-02T14:33:38.570Z,66.7
2023-04-02T14:34:55.556Z,67
2023-04-02T14:36:12.275Z,67.2
2023-04-02T14:37:29.327Z,67.7
2023-04-02T14:38:46.247Z,67.7
2023-04-02T14:40:03.339Z,67.7
2023-04-02T14:41:20.264Z,67.6
2023-04-02T14:42:37.306Z,68.2
2023-04-02T14:43:54.301Z,68.5
2023-04-02T14:45:11.343Z,69
2023-04-02T14:46:28.318Z,69.3
2023-04-02T14:47:45.294Z,69.2
2023-04-02T14:49:02.269Z,69.1
2023-04-02T14:50:19.276Z,69
2023-04-02T14:51:36.292Z,68.7
2023-04-02T14:52:53.247Z,69
2023-04-02T14:54:10.350Z,69.1
2023-04-02T14:55:27.265Z,69
2023-04-02T14:56:44.282Z,68.5
2023-04-02T14:58:01.307Z,67.9
2023-04-02T14:59:18.411Z,67.5
2023-04-02T15:00:35.626Z,67.2
2023-04-02T15:01:52.387Z,66.7
2023-04-02T15:03:09.402Z,66.5
2023-04-02T15:04:26.585Z,66.6
2023-04-02T15:05:43.375Z,66.7
2023-04-02T15:07:00.339Z,66.5
2023-04-02T15:08:17.271Z,65.8
2023-04-02T15:09:35.065Z,66
2023-04-02T15:10:52.302Z,66.5
2023-04-02T15:12:09.329Z,66.5
2023-04-02T15:13:26.305Z,66.8
2023-04-02T15:14:43.358Z,66.7
2023-04-02T15:16:00.381Z,66.7
2023-04-02T15:17:17.327Z,66.6
2023-04-02T15:18:34.277Z,66.3
2023-04-02T15:19:51.414Z,66.7
2023-04-02T15:21:08.317Z,66.7
2023-04-02T15:22:25.318Z,66.9
2023-04-02T15:23:42.324Z,66.7
2023-04-02T15:24:59.329Z,66
2023-04-02T15:26:16.421Z,65.9
2023-04-02T15:27:33.395Z,65.6
2023-04-02T15:28:50.323Z,65.4
2023-04-02T15:30:07.425Z,65
2023-04-02T15:31:24.450Z,65.1
2023-04-02T15:32:41.406Z,65.5
2023-04-02T15:33:58.358Z,65.8
2023-04-02T15:35:15.325Z,66
2023-04-02T15:36:32.328Z,65.9
2023-04-02T15:37:49.405Z,65.6
2023-04-02T15:39:06.334Z,65.8
2023-04-02T15:40:23.370Z,65.8
2023-04-02T15:41:40.400Z,65.6
2023-04-02T15:42:57.421Z,65.4
2023-04-02T15:44:14.318Z,65.8
2023-04-02T15:45:31.387Z,65.9
2023-04-02T15:46:48.406Z,66.1
2023-04-02T15:48:05.402Z,66.2
2023-04-02T15:49:22.492Z,66.4
2023-04-02T15:50:40.936Z,66.8
2023-04-02T15:51:56.441Z,67.2
2023-04-02T15:53:13.441Z,67
2023-04-02T15:54:30.506Z,67
2023-04-02T15:55:47.457Z,67.1
2023-04-02T15:57:05.210Z,67.3
2023-04-02T15:58:22.852Z,67.5
2023-04-02T15:59:39.529Z,67.3
2023-04-02T16:00:56.412Z,67.2
2023-04-02T16:02:13.502Z,66.8
2023-04-02T16:03:30.424Z,66.9
2023-04-02T16:04:47.394Z,66.4
2023-04-02T16:06:04.377Z,66.1
2023-04-02T16:07:21.411Z,66.1
2023-04-02T16:08:38.451Z,66.4
2023-04-02T16:09:55.419Z,66.3
2023-04-02T16:11:12.383Z,66.2
2023-04-02T16:12:29.415Z,65.8
2023-04-02T16:13:46.425Z,65.5
2023-04-02T16:15:03.426Z,65.6
2023-04-02T16:16:20.455Z,66.2
2023-04-02T16:17:37.556Z,66.7
2023-04-02T16:18:54.431Z,66.8
2023-04-02T16:20:11.445Z,66.8
2023-04-02T16:21:28.396Z,67.5
2023-04-02T16:22:57.648Z,68.1
2023-04-02T16:24:02.456Z,68.3
2023-04-02T16:25:19.502Z,68.5
2023-04-02T16:26:36.399Z,68.3
2023-04-02T16:27:53.461Z,67.9
2023-04-02T16:29:10.442Z,67.8
2023-04-02T16:30:27.476Z,68
2023-04-02T16:31:44.418Z,68
2023-04-02T16:33:01.494Z,68.1
2023-04-02T16:34:18.392Z,68.1
2023-04-02T16:35:42.942Z,68.3
2023-04-02T16:36:52.395Z,68.6
2023-04-02T16:38:09.417Z,69.3
2023-04-02T16:39:26.432Z,70
2023-04-02T16:40:43.738Z,70.3
2023-04-02T16:42:00.394Z,70.5
2023-04-02T16:43:17.498Z,70.6
2023-04-02T16:44:34.396Z,71
2023-04-02T16:45:51.464Z,70.7
2023-04-02T16:47:08.477Z,70.2
2023-04-02T16:48:25.467Z,69.7
2023-04-02T16:49:42.403Z,69.6
2023-04-02T16:50:59.409Z,70.2
2023-04-02T16:52:16.535Z,70.5
2023-04-02T16:53:33.434Z,70.3
2023-04-02T16:54:50.454Z,70.3
2023-04-02T16:56:07.471Z,70
2023-04-02T16:57:24.472Z,69.9
2023-04-02T16:58:41.450Z,70.6
2023-04-02T16:59:58.425Z,71.2
2023-04-02T17:01:15.455Z,71.9
2023-04-02T17:02:32.580Z,72
2023-04-02T17:03:49.566Z,71.9
2023-04-02T17:05:06.429Z,71.4
2023-04-02T17:06:23.687Z,71
2023-04-02T17:07:40.639Z,70.5
2023-04-02T17:08:57.475Z,69.9
2023-04-02T17:10:14.446Z,69.5
2023-04-02T17:11:31.467Z,69.7
2023-04-02T17:12:48.686Z,69.7